Time;durP1;ratioP1;P1;durP2;ratioP2;P2;SDS_P1;SDS_P2;PMS_P1;PMS_P2;Temp;Humidity;BMP_temperature;BMP_pressure;BME280_temperature;BME280_humidity;BME280_pressure;Samples;Min_cycle;Max_cycle;Signal;HPM_P1;HPM_P2
2022/03/06 00:02:08;;;;;;;67.82;25.38;;;;;;;;;;5098603;28;20499;-81
2022/03/06 00:04:33;;;;;;;85.00;33.35;;;;;;;;;;5115501;28;20031;-80
2022/03/06 00:06:59;;;;;;;80.55;32.25;;;;;;;;;;5118822;28;20024;-81
2022/03/06 00:09:26;;;;;;;86.28;33.10;;;;;;;;;;5124487;28;20493;-81
2022/03/06 00:11:54;;;;;;;87.80;34.67;;;;;;;;;;5116208;28;20221;-82
2022/03/06 00:14:19;;;;;;;82.05;31.48;;;;;;;;;;5115082;28;20104;-81
2022/03/06 00:16:45;;;;;;;63.50;24.55;;;;;;;;;;5113961;28;20085;-82
2022/03/06 00:19:11;;;;;;;91.10;35.75;;;;;;;;;;5115105;28;20114;-81
2022/03/06 00:21:37;;;;;;;81.18;32.08;;;;;;;;;;5116162;28;20036;-81
2022/03/06 00:24:04;;;;;;;85.28;32.97;;;;;;;;;;5114826;28;20032;-81
2022/03/06 00:26:30;;;;;;;82.95;33.67;;;;;;;;;;5114708;28;20134;-80
2022/03/06 00:28:56;;;;;;;92.40;36.63;;;;;;;;;;5121980;28;20093;-82
2022/03/06 00:31:24;;;;;;;84.18;32.75;;;;;;;;;;5087186;28;20414;-81
2022/03/06 00:33:50;;;;;;;81.88;33.40;;;;;;;;;;5115088;28;20089;-82
2022/03/06 00:36:16;;;;;;;76.63;29.83;;;;;;;;;;5114642;28;20034;-83
2022/03/06 00:38:41;;;;;;;83.93;33.05;;;;;;;;;;5116403;28;20125;-82
2022/03/06 00:41:07;;;;;;;112.70;44.13;;;;;;;;;;5114309;28;20063;-82
2022/03/06 00:43:33;;;;;;;94.93;34.53;;;;;;;;;;5116018;28;20040;-80
2022/03/06 00:45:58;;;;;;;83.13;29.48;;;;;;;;;;5114647;28;20031;-80
2022/03/06 00:48:24;;;;;;;93.72;33.38;;;;;;;;;;5114303;28;20106;-81
2022/03/06 00:50:49;;;;;;;117.85;55.30;;;;;;;;;;5118772;28;20023;-81
2022/03/06 00:53:15;;;;;;;98.38;36.65;;;;;;;;;;5121192;28;20126;-79
2022/03/06 00:55:43;;;;;;;83.72;32.15;;;;;;;;;;5115290;28;20024;-81
2022/03/06 00:58:09;;;;;;;111.32;43.22;;;;;;;;;;5114325;28;20373;-80
2022/03/06 01:00:46;;;;;;;101.72;41.33;;;;;;;;;;5115404;28;20043;-80
2022/03/06 01:03:16;;;;;;;67.03;27.02;;;;;;;;;;5114630;28;20055;-81
2022/03/06 01:05:42;;;;;;;93.97;35.53;;;;;;;;;;5114208;28;20067;-80
2022/03/06 01:08:08;;;;;;;86.03;32.33;;;;;;;;;;5097167;28;20035;-79
2022/03/06 01:10:34;;;;;;;79.32;29.00;;;;;;;;;;5113972;28;20028;-80
2022/03/06 01:13:00;;;;;;;95.65;35.60;;;;;;;;;;5119422;28;20027;-80
2022/03/06 01:15:26;;;;;;;80.88;28.00;;;;;;;;;;5098927;28;20039;-80
2022/03/06 01:17:51;;;;;;;109.93;49.22;;;;;;;;;;5113499;28;20116;-80
2022/03/06 01:20:17;;;;;;;107.97;40.03;;;;;;;;;;5115234;28;20023;-80
2022/03/06 01:22:44;;;;;;;104.40;37.60;;;;;;;;;;5115149;28;20056;-79
2022/03/06 01:25:10;;;;;;;113.10;40.72;;;;;;;;;;5114847;28;20482;-80
2022/03/06 01:27:36;;;;;;;96.80;35.88;;;;;;;;;;5117049;28;20032;-80
2022/03/06 01:30:05;;;;;;;101.72;38.03;;;;;;;;;;5113690;28;20372;-80
2022/03/06 01:32:31;;;;;;;67.78;27.50;;;;;;;;;;5120521;28;20023;-81
2022/03/06 01:34:57;;;;;;;88.75;31.80;;;;;;;;;;5119859;28;20027;-79
2022/03/06 01:37:22;;;;;;;81.93;32.10;;;;;;;;;;5117116;28;20106;-80
2022/03/06 01:39:48;;;;;;;102.03;40.20;;;;;;;;;;5113930;28;20024;-80
2022/03/06 01:42:13;;;;;;;79.00;31.15;;;;;;;;;;5114588;28;20024;-80
2022/03/06 01:44:39;;;;;;;80.90;29.95;;;;;;;;;;5114646;28;20070;-81
2022/03/06 01:47:05;;;;;;;73.00;28.65;;;;;;;;;;5114671;28;20027;-80
2022/03/06 01:49:30;;;;;;;81.38;32.40;;;;;;;;;;5114586;28;20020;-81
2022/03/06 01:51:56;;;;;;;73.03;26.33;;;;;;;;;;5114529;28;20031;-81
2022/03/06 01:54:21;;;;;;;75.38;28.80;;;;;;;;;;5114680;28;20535;-80
2022/03/06 01:56:47;;;;;;;69.18;25.38;;;;;;;;;;5117463;28;20023;-80
2022/03/06 01:59:12;;;;;;;85.30;31.40;;;;;;;;;;5118921;28;20436;-80
2022/03/06 02:01:38;;;;;;;78.43;28.38;;;;;;;;;;5113252;28;20059;-80
2022/03/06 02:04:03;;;;;;;102.22;44.00;;;;;;;;;;5114464;28;20081;-80
2022/03/06 02:06:29;;;;;;;89.45;32.97;;;;;;;;;;5114483;28;20032;-80
2022/03/06 02:08:54;;;;;;;62.38;23.70;;;;;;;;;;5096375;28;20024;-80
2022/03/06 02:11:21;;;;;;;69.78;26.95;;;;;;;;;;5113316;28;20036;-81
2022/03/06 02:13:46;;;;;;;74.22;29.90;;;;;;;;;;5113200;28;20027;-80
2022/03/06 02:16:12;;;;;;;75.00;31.77;;;;;;;;;;5114214;28;20050;-81
2022/03/06 02:18:37;;;;;;;63.92;26.88;;;;;;;;;;5120770;28;20031;-80
2022/03/06 02:21:10;;;;;;;75.22;29.00;;;;;;;;;;5120120;28;20026;-79
2022/03/06 02:23:37;;;;;;;75.13;32.22;;;;;;;;;;5112837;28;20380;-80
2022/03/06 02:26:02;;;;;;;70.03;29.10;;;;;;;;;;5114294;28;20168;-79
2022/03/06 02:28:28;;;;;;;81.72;27.63;;;;;;;;;;5114177;28;20110;-80
2022/03/06 02:30:53;;;;;;;66.35;24.42;;;;;;;;;;5114783;28;20031;-79
2022/03/06 02:33:19;;;;;;;65.70;24.58;;;;;;;;;;5096636;28;20555;-80
2022/03/06 02:35:44;;;;;;;66.95;30.40;;;;;;;;;;5114257;28;20398;-80
2022/03/06 02:38:10;;;;;;;59.20;23.73;;;;;;;;;;5114066;28;20360;-81
2022/03/06 02:40:42;;;;;;;69.15;24.58;;;;;;;;;;5122859;28;20107;-81
2022/03/06 02:43:08;;;;;;;74.70;27.10;;;;;;;;;;5120089;28;20107;-80
2022/03/06 02:45:34;;;;;;;60.00;25.27;;;;;;;;;;5099932;28;20028;-81
2022/03/06 02:47:59;;;;;;;56.75;23.70;;;;;;;;;;5099864;28;20085;-81
2022/03/06 02:50:30;;;;;;;70.60;29.13;;;;;;;;;;5099726;28;20024;-81
2022/03/06 02:52:56;;;;;;;;;;;;;;;;;;5118153;28;20070;-81
2022/03/06 02:55:22;;;;;;;44.88;18.83;;;;;;;;;;5117833;27;19949;-81
2022/03/06 02:57:48;;;;;;;57.55;20.33;;;;;;;;;;5116872;28;20103;-81
2022/03/06 03:00:15;;;;;;;59.28;21.20;;;;;;;;;;5116667;28;20357;-80
2022/03/06 03:02:42;;;;;;;56.40;24.58;;;;;;;;;;5126568;28;20042;-80
2022/03/06 03:05:08;;;;;;;56.97;21.38;;;;;;;;;;5120174;28;20036;-82
2022/03/06 03:07:34;;;;;;;68.97;22.98;;;;;;;;;;5099534;28;20373;-81
2022/03/06 03:09:59;;;;;;;73.03;27.95;;;;;;;;;;5117558;28;20023;-81
2022/03/06 03:12:26;;;;;;;55.47;22.77;;;;;;;;;;5082425;28;20358;-81
2022/03/06 03:14:53;;;;;;;54.72;22.95;;;;;;;;;;5099611;28;20361;-81
2022/03/06 03:17:18;;;;;;;63.40;23.27;;;;;;;;;;5116347;28;20074;-81
2022/03/06 03:19:44;;;;;;;44.40;19.50;;;;;;;;;;5117227;28;20031;-80
2022/03/06 03:22:10;;;;;;;58.47;21.67;;;;;;;;;;5116159;28;20035;-81
2022/03/06 03:24:35;;;;;;;52.28;19.58;;;;;;;;;;5122234;28;20027;-81
2022/03/06 03:27:01;;;;;;;58.80;22.65;;;;;;;;;;5119894;28;20050;-81
2022/03/06 03:29:27;;;;;;;52.08;19.83;;;;;;;;;;5116239;28;20397;-81
2022/03/06 03:31:52;;;;;;;63.17;27.42;;;;;;;;;;5117121;28;20024;-82
2022/03/06 03:34:18;;;;;;;62.67;22.98;;;;;;;;;;5116880;28;20097;-81
2022/03/06 03:36:43;;;;;;;51.88;21.58;;;;;;;;;;5116035;28;20054;-80
2022/03/06 03:39:09;;;;;;;33.10;14.27;;;;;;;;;;5117001;28;20023;-81
2022/03/06 03:41:35;;;;;;;34.58;14.27;;;;;;;;;;5116949;28;20032;-81
2022/03/06 03:44:01;;;;;;;39.50;17.02;;;;;;;;;;5116735;28;20512;-81
2022/03/06 03:46:26;;;;;;;43.72;17.77;;;;;;;;;;5121214;28;20036;-81
2022/03/06 03:48:52;;;;;;;48.70;18.55;;;;;;;;;;5119550;28;20027;-81
2022/03/06 03:51:17;;;;;;;48.78;17.88;;;;;;;;;;5114311;28;20031;-80
2022/03/06 03:53:43;;;;;;;38.35;13.00;;;;;;;;;;5116562;28;20126;-80
2022/03/06 03:56:08;;;;;;;37.03;16.65;;;;;;;;;;5116690;28;20027;-80
2022/03/06 03:58:34;;;;;;;38.05;14.15;;;;;;;;;;5116451;28;20114;-81
2022/03/06 04:01:00;;;;;;;28.65;13.13;;;;;;;;;;5115770;28;20032;-80
2022/03/06 04:03:25;;;;;;;23.67;9.93;;;;;;;;;;5115201;28;20052;-80
2022/03/06 04:05:51;;;;;;;34.50;13.07;;;;;;;;;;5100613;28;20028;-81
2022/03/06 04:08:16;;;;;;;31.83;13.65;;;;;;;;;;5123384;28;20058;-81
2022/03/06 04:10:42;;;;;;;39.75;15.65;;;;;;;;;;5130414;28;20019;-80
2022/03/06 04:13:09;;;;;;;26.02;12.15;;;;;;;;;;5130592;28;20027;-81
2022/03/06 04:15:35;;;;;;;22.08;10.20;;;;;;;;;;5127729;28;20034;-81
2022/03/06 04:18:01;;;;;;;28.10;12.43;;;;;;;;;;5128731;28;20107;-80
2022/03/06 04:20:27;;;;;;;27.35;13.43;;;;;;;;;;5111689;28;20027;-80
2022/03/06 04:22:53;;;;;;;29.52;10.32;;;;;;;;;;5099477;28;20027;-81
2022/03/06 04:25:18;;;;;;;23.35;10.15;;;;;;;;;;5116299;28;20401;-80
2022/03/06 04:27:43;;;;;;;27.45;11.55;;;;;;;;;;5118158;28;20483;-82
2022/03/06 04:30:09;;;;;;;23.65;11.07;;;;;;;;;;5130452;27;20036;-80
2022/03/06 04:32:35;;;;;;;19.75;8.95;;;;;;;;;;5115751;28;20080;-80
2022/03/06 04:35:01;;;;;;;21.63;10.32;;;;;;;;;;5116462;28;20015;-81
2022/03/06 04:37:27;;;;;;;23.77;10.82;;;;;;;;;;5098065;28;20164;-80
2022/03/06 04:39:52;;;;;;;19.27;7.95;;;;;;;;;;5114663;28;20102;-80
2022/03/06 04:42:18;;;;;;;21.40;9.32;;;;;;;;;;5115187;28;20035;-82
2022/03/06 04:44:44;;;;;;;21.50;9.10;;;;;;;;;;5114622;28;20031;-80
2022/03/06 04:47:09;;;;;;;20.73;8.82;;;;;;;;;;5097488;28;20024;-80
2022/03/06 04:49:35;;;;;;;19.55;7.95;;;;;;;;;;5119012;28;20039;-80
2022/03/06 04:52:01;;;;;;;19.48;7.22;;;;;;;;;;5120686;28;20514;-82
2022/03/06 04:54:26;;;;;;;27.13;10.30;;;;;;;;;;5115529;28;20028;-81
2022/03/06 04:56:52;;;;;;;24.85;10.63;;;;;;;;;;5115516;28;20337;-80
2022/03/06 04:59:17;;;;;;;20.17;8.32;;;;;;;;;;5115425;28;20032;-80
2022/03/06 05:01:43;;;;;;;24.02;9.52;;;;;;;;;;5115352;28;20034;-81
2022/03/06 05:04:09;;;;;;;23.10;11.25;;;;;;;;;;5115758;28;20039;-81
2022/03/06 05:06:34;;;;;;;18.27;9.00;;;;;;;;;;5116954;28;20027;-79
2022/03/06 05:08:59;;;;;;;27.98;9.98;;;;;;;;;;5114094;28;20031;-81
2022/03/06 05:11:25;;;;;;;24.73;9.88;;;;;;;;;;5125391;28;20480;-80
2022/03/06 05:13:50;;;;;;;23.30;10.00;;;;;;;;;;5122234;28;20038;-81
2022/03/06 05:16:16;;;;;;;26.40;9.57;;;;;;;;;;5114045;28;20069;-81
2022/03/06 05:18:41;;;;;;;26.10;12.55;;;;;;;;;;5115034;28;20027;-80
2022/03/06 05:21:07;;;;;;;26.48;11.35;;;;;;;;;;5114946;28;20055;-82
2022/03/06 05:23:32;;;;;;;24.92;8.70;;;;;;;;;;5113583;28;20031;-81
2022/03/06 05:25:58;;;;;;;20.48;9.15;;;;;;;;;;5113834;28;20062;-81
2022/03/06 05:28:25;;;;;;;25.48;11.00;;;;;;;;;;5113771;28;20020;-80
2022/03/06 05:30:51;;;;;;;20.48;7.53;;;;;;;;;;5113465;28;20444;-81
2022/03/06 05:33:17;;;;;;;23.60;10.38;;;;;;;;;;5103463;28;20114;-81
2022/03/06 05:35:42;;;;;;;22.85;10.18;;;;;;;;;;5123691;28;20103;-80
2022/03/06 05:38:07;;;;;;;20.33;8.07;;;;;;;;;;5118084;28;20085;-81
2022/03/06 05:40:33;;;;;;;23.10;10.10;;;;;;;;;;5117013;28;20031;-81
2022/03/06 05:43:00;;;;;;;19.40;8.57;;;;;;;;;;5113338;28;20035;-81
2022/03/06 05:45:25;;;;;;;26.58;7.93;;;;;;;;;;5114522;28;20380;-81
2022/03/06 05:47:51;;;;;;;23.30;10.60;;;;;;;;;;5114760;28;20023;-82
2022/03/06 05:50:16;;;;;;;15.88;7.10;;;;;;;;;;5113493;28;20020;-81
2022/03/06 05:52:41;;;;;;;27.40;12.02;;;;;;;;;;5115016;28;20054;-80
2022/03/06 05:55:08;;;;;;;32.13;11.70;;;;;;;;;;5099199;28;20108;-80
2022/03/06 05:57:33;;;;;;;24.38;11.48;;;;;;;;;;5121523;28;20440;-81
2022/03/06 05:59:59;;;;;;;20.27;8.82;;;;;;;;;;5114683;28;20036;-81
2022/03/06 06:02:24;;;;;;;22.27;8.48;;;;;;;;;;5113370;28;20027;-82
2022/03/06 06:04:50;;;;;;;26.80;11.35;;;;;;;;;;5113446;28;20023;-80
2022/03/06 06:07:15;;;;;;;26.30;10.25;;;;;;;;;;5113482;28;20024;-82
2022/03/06 06:09:41;;;;;;;36.03;12.15;;;;;;;;;;5096185;28;20111;-82
2022/03/06 06:12:07;;;;;;;18.70;8.40;;;;;;;;;;5096625;28;20038;-81
2022/03/06 06:14:33;;;;;;;25.38;11.50;;;;;;;;;;5115414;28;20049;-81
2022/03/06 06:16:58;;;;;;;23.88;10.05;;;;;;;;;;5117780;28;20036;-81
2022/03/06 06:19:24;;;;;;;27.80;11.23;;;;;;;;;;5109664;28;20054;-80
2022/03/06 06:21:49;;;;;;;23.15;10.20;;;;;;;;;;5100155;28;20039;-81
2022/03/06 06:24:15;;;;;;;25.77;11.98;;;;;;;;;;5118396;28;20031;-81
2022/03/06 06:26:47;;;;;;;21.73;10.48;;;;;;;;;;5117191;28;20122;-81
2022/03/06 06:29:13;;;;;;;24.38;10.38;;;;;;;;;;5118496;28;20028;-81
2022/03/06 06:31:39;;;;;;;28.92;11.48;;;;;;;;;;5100260;28;20354;-81
2022/03/06 06:34:05;;;;;;;23.30;10.45;;;;;;;;;;5100116;28;20437;-81
2022/03/06 06:36:30;;;;;;;19.02;9.32;;;;;;;;;;5100077;28;20028;-80
2022/03/06 06:38:56;;;;;;;22.90;9.13;;;;;;;;;;5117074;28;20080;-80
2022/03/06 06:41:21;;;;;;;29.30;9.95;;;;;;;;;;5125491;28;20080;-81
2022/03/06 06:43:47;;;;;;;28.75;11.38;;;;;;;;;;5099893;28;20035;-82
2022/03/06 06:46:14;;;;;;;20.27;9.50;;;;;;;;;;5118233;28;20106;-81
2022/03/06 06:48:40;;;;;;;19.08;9.65;;;;;;;;;;5116854;28;20035;-81
2022/03/06 06:51:06;;;;;;;38.53;15.85;;;;;;;;;;5118050;28;20937;-81
2022/03/06 06:53:32;;;;;;;24.50;11.00;;;;;;;;;;5083180;28;20035;-82
2022/03/06 06:55:57;;;;;;;28.23;12.32;;;;;;;;;;5117984;28;20032;-81
2022/03/06 06:58:23;;;;;;;22.13;10.05;;;;;;;;;;5117939;28;20035;-80
2022/03/06 07:00:48;;;;;;;29.73;10.40;;;;;;;;;;5099613;28;20410;-82
2022/03/06 07:03:15;;;;;;;26.88;10.68;;;;;;;;;;5127787;28;20118;-81
2022/03/06 07:05:42;;;;;;;32.50;13.18;;;;;;;;;;5117295;28;20518;-81
2022/03/06 07:08:07;;;;;;;25.15;10.75;;;;;;;;;;5116777;28;20035;-82
2022/03/06 07:10:33;;;;;;;31.05;13.32;;;;;;;;;;5116476;28;20449;-81
2022/03/06 07:12:59;;;;;;;24.75;11.25;;;;;;;;;;5117346;28;20444;-80
2022/03/06 07:15:28;;;;;;;28.85;10.85;;;;;;;;;;5117546;28;20039;-81
2022/03/06 07:17:56;;;;;;;36.70;13.38;;;;;;;;;;5117400;28;20051;-81
2022/03/06 07:20:22;;;;;;;36.53;14.15;;;;;;;;;;5082747;28;20032;-81
2022/03/06 07:22:47;;;;;;;50.05;18.38;;;;;;;;;;5116029;28;20475;-81
2022/03/06 07:25:13;;;;;;;54.05;16.40;;;;;;;;;;5126712;28;20028;-81
2022/03/06 07:27:39;;;;;;;124.55;27.85;;;;;;;;;;5116406;28;20392;-82
2022/03/06 07:30:05;;;;;;;22.25;9.63;;;;;;;;;;5135816;28;20051;-81
2022/03/06 07:32:32;;;;;;;35.70;15.10;;;;;;;;;;5099025;28;20059;-80
2022/03/06 07:34:58;;;;;;;29.35;12.07;;;;;;;;;;5116257;28;20472;-81
2022/03/06 07:37:24;;;;;;;36.72;13.15;;;;;;;;;;5117150;28;20067;-80
2022/03/06 07:39:50;;;;;;;50.00;20.00;;;;;;;;;;5116962;28;20055;-81
2022/03/06 07:42:17;;;;;;;26.40;10.18;;;;;;;;;;5116805;28;20111;-81
2022/03/06 07:44:42;;;;;;;29.90;14.10;;;;;;;;;;5116097;28;20345;-81
2022/03/06 07:47:09;;;;;;;44.90;18.60;;;;;;;;;;5091770;28;20045;-81
2022/03/06 07:49:35;;;;;;;36.05;15.10;;;;;;;;;;5115741;28;20023;-81
2022/03/06 07:52:00;;;;;;;32.10;13.57;;;;;;;;;;5115683;28;20433;-81
2022/03/06 07:54:26;;;;;;;33.47;14.38;;;;;;;;;;5115820;28;20034;-81
2022/03/06 07:56:51;;;;;;;26.35;10.80;;;;;;;;;;5115408;28;20384;-80
2022/03/06 07:59:21;;;;;;;33.92;13.57;;;;;;;;;;5116734;28;20020;-81
2022/03/06 08:01:46;;;;;;;34.00;13.32;;;;;;;;;;5116509;28;20035;-81
2022/03/06 08:04:12;;;;;;;26.75;10.15;;;;;;;;;;5116575;28;20152;-80
2022/03/06 08:06:37;;;;;;;35.38;14.27;;;;;;;;;;5116472;28;20034;-80
2022/03/06 08:09:04;;;;;;;38.63;14.32;;;;;;;;;;5128836;27;20016;-80
2022/03/06 08:11:30;;;;;;;34.03;13.25;;;;;;;;;;5115224;28;20435;-81
2022/03/06 08:13:55;;;;;;;31.30;12.23;;;;;;;;;;5117286;28;20063;-81
2022/03/06 08:16:21;;;;;;;32.67;13.23;;;;;;;;;;5116413;28;20434;-81
2022/03/06 08:18:46;;;;;;;22.80;10.20;;;;;;;;;;5116323;28;20066;-81
2022/03/06 08:21:12;;;;;;;31.02;11.18;;;;;;;;;;5116171;28;20035;-81
2022/03/06 08:23:38;;;;;;;36.97;15.02;;;;;;;;;;5114689;28;20047;-80
2022/03/06 08:26:05;;;;;;;39.42;14.73;;;;;;;;;;5114960;28;20144;-81
2022/03/06 08:28:31;;;;;;;27.65;11.57;;;;;;;;;;5116085;28;20438;-79
2022/03/06 08:30:57;;;;;;;40.33;15.95;;;;;;;;;;5123985;28;20075;-80
2022/03/06 08:33:23;;;;;;;39.60;14.85;;;;;;;;;;5116765;28;20030;-80
2022/03/06 08:35:48;;;;;;;30.08;11.93;;;;;;;;;;5114736;28;20107;-79
2022/03/06 08:38:14;;;;;;;30.52;13.38;;;;;;;;;;5115250;28;20072;-79
2022/03/06 08:40:40;;;;;;;27.17;12.65;;;;;;;;;;5114444;28;20031;-79
2022/03/06 08:43:06;;;;;;;39.08;15.27;;;;;;;;;;5115747;28;20052;-79
2022/03/06 08:45:31;;;;;;;39.28;15.52;;;;;;;;;;5114562;28;20066;-80
2022/03/06 08:47:58;;;;;;;42.85;20.27;;;;;;;;;;5114584;28;20023;-80
2022/03/06 08:50:24;;;;;;;35.65;14.95;;;;;;;;;;5114365;28;20027;-82
2022/03/06 08:52:49;;;;;;;51.88;20.67;;;;;;;;;;5125940;28;20446;-82
2022/03/06 08:55:15;;;;;;;47.40;18.50;;;;;;;;;;5116322;28;20020;-82
2022/03/06 08:57:40;;;;;;;40.47;18.23;;;;;;;;;;5115575;28;20031;-81
2022/03/06 09:00:07;;;;;;;40.60;15.80;;;;;;;;;;5114555;28;20027;-81
2022/03/06 09:02:33;;;;;;;43.47;16.80;;;;;;;;;;5114014;28;20028;-82
2022/03/06 09:04:58;;;;;;;52.03;20.70;;;;;;;;;;5115321;28;20035;-82
2022/03/06 09:07:24;;;;;;;37.38;16.45;;;;;;;;;;5115573;28;20137;-82
2022/03/06 09:09:50;;;;;;;31.27;12.27;;;;;;;;;;5097027;28;20028;-81
2022/03/06 09:12:15;;;;;;;25.15;11.52;;;;;;;;;;5115969;28;20034;-82
2022/03/06 09:14:41;;;;;;;35.92;13.85;;;;;;;;;;5105103;28;20028;-82
2022/03/06 09:17:09;;;;;;;32.60;13.75;;;;;;;;;;5116042;28;20381;-83
2022/03/06 09:19:35;;;;;;;54.40;20.58;;;;;;;;;;5114020;28;20028;-83
2022/03/06 09:22:01;;;;;;;65.70;25.13;;;;;;;;;;5097039;28;20349;-83
2022/03/06 09:24:26;;;;;;;53.10;20.05;;;;;;;;;;5114787;28;20067;-82
2022/03/06 09:26:52;;;;;;;48.63;18.48;;;;;;;;;;5096791;28;20055;-82
2022/03/06 09:29:20;;;;;;;41.50;16.33;;;;;;;;;;5097060;28;20031;-81
2022/03/06 09:31:47;;;;;;;43.05;16.33;;;;;;;;;;5113820;28;20619;-81
2022/03/06 09:34:13;;;;;;;58.88;23.65;;;;;;;;;;5115156;28;20035;-82
2022/03/06 09:36:39;;;;;;;41.45;14.93;;;;;;;;;;5124644;28;20024;-82
2022/03/06 09:39:06;;;;;;;61.92;20.48;;;;;;;;;;5118994;28;20420;-82
2022/03/06 09:41:31;;;;;;;51.92;19.60;;;;;;;;;;5114831;28;20031;-83
2022/03/06 09:44:00;;;;;;;49.72;18.40;;;;;;;;;;5096730;28;20027;-82
2022/03/06 09:46:25;;;;;;;78.45;30.65;;;;;;;;;;5113713;28;20023;-82
2022/03/06 09:48:51;;;;;;;61.03;23.52;;;;;;;;;;5113589;28;20449;-81
2022/03/06 09:51:16;;;;;;;75.63;25.92;;;;;;;;;;5115026;28;20467;-82
2022/03/06 09:53:42;;;;;;;51.75;18.02;;;;;;;;;;5115345;28;20460;-81
2022/03/06 09:56:07;;;;;;;64.50;23.00;;;;;;;;;;5113644;28;20127;-84
2022/03/06 09:58:34;;;;;;;49.00;18.67;;;;;;;;;;5105175;28;20024;-82
2022/03/06 10:01:00;;;;;;;50.25;19.10;;;;;;;;;;5117528;28;20485;-82
2022/03/06 10:03:25;;;;;;;50.60;19.60;;;;;;;;;;5114558;28;20070;-83
2022/03/06 10:05:51;;;;;;;43.92;17.45;;;;;;;;;;5096195;28;20027;-83
2022/03/06 10:08:27;;;;;;;39.38;15.15;;;;;;;;;;5113453;28;20380;-82
2022/03/06 10:10:59;;;;;;;56.15;19.17;;;;;;;;;;5113492;28;20028;-82
2022/03/06 10:13:41;;;;;;;61.30;21.00;;;;;;;;;;5114252;28;20034;-82
2022/03/06 10:16:16;;;;;;;57.03;17.52;;;;;;;;;;5113174;28;20425;-83
2022/03/06 10:18:42;;;;;;;78.65;28.73;;;;;;;;;;5114620;28;20089;-81
2022/03/06 10:21:40;;;;;;;95.85;29.98;;;;;;;;;;5120906;28;20047;-82
2022/03/06 10:24:08;;;;;;;52.78;19.05;;;;;;;;;;5079678;28;20154;-82
2022/03/06 10:26:34;;;;;;;82.80;31.77;;;;;;;;;;5113296;28;20039;-82
2022/03/06 10:29:05;;;;;;;79.75;23.38;;;;;;;;;;5130686;28;20067;-82
2022/03/06 10:31:34;;;;;;;73.75;27.45;;;;;;;;;;5116857;28;20024;-83
2022/03/06 10:34:12;;;;;;;61.80;22.80;;;;;;;;;;5115071;28;20023;-82
2022/03/06 10:36:44;;;;;;;42.95;17.67;;;;;;;;;;5097200;28;20051;-82
2022/03/06 10:39:19;;;;;;;64.55;23.90;;;;;;;;;;5113349;28;20115;-82
2022/03/06 10:41:52;;;;;;;57.65;23.15;;;;;;;;;;5113053;28;20047;-83
2022/03/06 10:44:18;;;;;;;65.53;22.65;;;;;;;;;;5124259;28;20038;-81
2022/03/06 10:47:16;;;;;;;68.72;23.63;;;;;;;;;;5096297;28;20023;-82
2022/03/06 10:49:45;;;;;;;62.20;23.00;;;;;;;;;;5062542;28;20058;-83
2022/03/06 10:52:18;;;;;;;44.90;17.10;;;;;;;;;;5086719;28;20030;-83
2022/03/06 10:54:54;;;;;;;41.78;15.32;;;;;;;;;;5114548;28;20442;-84
2022/03/06 10:57:20;;;;;;;64.78;25.88;;;;;;;;;;5112930;28;20028;-84
2022/03/06 10:59:47;;;;;;;57.20;21.92;;;;;;;;;;5079975;28;20372;-81
2022/03/06 11:02:13;;;;;;;58.85;19.25;;;;;;;;;;5099664;28;20482;-82
2022/03/06 11:04:39;;;;;;;79.55;27.35;;;;;;;;;;5103615;28;20023;-83
2022/03/06 11:07:05;;;;;;;91.22;37.25;;;;;;;;;;5104204;28;20447;-83
2022/03/06 11:09:31;;;;;;;61.85;24.48;;;;;;;;;;5082669;28;20028;-85
2022/03/06 11:11:57;;;;;;;69.32;23.35;;;;;;;;;;5126648;28;20050;-84
2022/03/06 11:14:22;;;;;;;76.03;29.13;;;;;;;;;;5099648;28;20433;-85
2022/03/06 11:16:48;;;;;;;58.42;21.98;;;;;;;;;;5116375;28;20039;-84
2022/03/06 11:19:13;;;;;;;51.05;19.90;;;;;;;;;;5099142;28;20023;-84
2022/03/06 11:21:40;;;;;;;60.38;23.40;;;;;;;;;;5116109;28;20031;-84
2022/03/06 11:24:13;;;;;;;51.30;19.33;;;;;;;;;;5099504;28;20338;-84
2022/03/06 11:27:03;;;;;;;47.42;19.42;;;;;;;;;;5120971;28;20083;-82
2022/03/06 11:30:06;;;;;;;50.97;20.27;;;;;;;;;;5124122;28;20088;-84
2022/03/06 11:32:35;;;;;;;49.35;20.63;;;;;;;;;;5130688;28;20038;-82
2022/03/06 11:35:07;;;;;;;57.22;22.70;;;;;;;;;;5116314;28;20071;-84
2022/03/06 11:37:52;;;;;;;53.40;22.60;;;;;;;;;;5116864;28;20024;-86
2022/03/06 11:40:48;;;;;;;44.63;18.25;;;;;;;;;;5125036;28;20041;-87
2022/03/06 11:43:30;;;;;;;71.05;28.67;;;;;;;;;;5122401;28;20039;-84
2022/03/06 11:45:58;;;;;;;48.97;20.88;;;;;;;;;;5119525;27;20123;-85
2022/03/06 11:48:27;;;;;;;50.80;21.42;;;;;;;;;;5127489;28;20032;-85
2022/03/06 11:51:14;;;;;;;54.28;21.45;;;;;;;;;;5135861;28;20069;-86
2022/03/06 11:54:02;;;;;;;55.58;20.88;;;;;;;;;;5118482;28;20110;-86
2022/03/06 11:56:34;;;;;;;59.35;24.90;;;;;;;;;;5115403;28;20073;-86
2022/03/06 11:59:06;;;;;;;63.17;23.38;;;;;;;;;;5116624;28;20024;-85
2022/03/06 12:01:38;;;;;;;73.28;31.63;;;;;;;;;;5115465;28;20054;-84
2022/03/06 12:04:06;;;;;;;52.72;22.67;;;;;;;;;;5115264;28;20387;-85
2022/03/06 12:06:36;;;;;;;52.83;19.85;;;;;;;;;;5117040;28;20126;-86
2022/03/06 12:09:01;;;;;;;61.47;24.35;;;;;;;;;;5115341;28;20434;-86
2022/03/06 12:11:27;;;;;;;58.42;21.00;;;;;;;;;;5110311;28;20058;-84
2022/03/06 12:13:52;;;;;;;42.67;19.70;;;;;;;;;;5104022;28;20028;-86
2022/03/06 12:16:17;;;;;;;58.22;22.23;;;;;;;;;;5114910;28;20035;-86
2022/03/06 12:19:02;;;;;;;68.82;26.85;;;;;;;;;;5098251;28;20019;-87
2022/03/06 12:21:37;;;;;;;63.65;23.63;;;;;;;;;;5098483;28;20020;-88
2022/03/06 12:24:10;;;;;;;119.78;43.13;;;;;;;;;;5115701;28;20031;-88
2022/03/06 12:26:43;;;;;;;101.55;38.03;;;;;;;;;;5101930;28;20857;-87
2022/03/06 12:29:08;;;;;;;125.45;37.05;;;;;;;;;;5081513;28;20088;-88
2022/03/06 12:31:35;;;;;;;136.13;43.38;;;;;;;;;;5096857;28;20040;-88
2022/03/06 12:34:22;;;;;;;125.72;45.20;;;;;;;;;;5113641;28;20049;-87
2022/03/06 12:36:54;;;;;;;100.93;35.42;;;;;;;;;;5103830;28;20115;-90
2022/03/06 12:39:20;;;;;;;87.65;33.55;;;;;;;;;;5115258;28;20031;-90
2022/03/06 12:41:45;;;;;;;80.65;31.02;;;;;;;;;;5098073;28;20413;-91
2022/03/06 12:44:12;;;;;;;62.75;23.65;;;;;;;;;;5115254;28;20032;-90
2022/03/06 12:46:38;;;;;;;65.22;26.02;;;;;;;;;;5108850;28;20031;-90
2022/03/06 12:49:03;;;;;;;79.88;32.13;;;;;;;;;;5098093;28;20027;-90
2022/03/06 12:51:30;;;;;;;46.97;20.65;;;;;;;;;;5116761;28;20495;-91
2022/03/06 12:53:55;;;;;;;42.33;18.90;;;;;;;;;;5101916;28;20091;-88
2022/03/06 12:56:31;;;;;;;50.15;22.00;;;;;;;;;;5122486;28;20067;-88
2022/03/06 12:59:04;;;;;;;42.15;18.08;;;;;;;;;;5115301;28;20030;-88
2022/03/06 13:01:33;;;;;;;62.10;24.10;;;;;;;;;;5097895;28;20156;-89
2022/03/06 13:03:59;;;;;;;52.58;22.15;;;;;;;;;;5080954;28;20039;-88
2022/03/06 13:06:24;;;;;;;56.80;21.73;;;;;;;;;;5117626;28;20027;-88
2022/03/06 13:08:50;;;;;;;49.33;20.42;;;;;;;;;;5083156;28;20031;-88
2022/03/06 13:11:15;;;;;;;54.42;23.33;;;;;;;;;;5112709;28;20445;-88
2022/03/06 13:13:41;;;;;;;48.40;20.48;;;;;;;;;;5097589;28;20464;-87
2022/03/06 13:16:07;;;;;;;37.30;18.15;;;;;;;;;;5113808;28;20418;-87
2022/03/06 13:18:34;;;;;;;42.72;19.40;;;;;;;;;;5124827;28;20018;-87
2022/03/06 13:21:00;;;;;;;47.00;20.60;;;;;;;;;;5098303;28;20076;-89
2022/03/06 13:23:25;;;;;;;33.40;15.45;;;;;;;;;;5113643;28;20032;-87
2022/03/06 13:25:51;;;;;;;52.67;24.20;;;;;;;;;;5115121;28;20076;-86
2022/03/06 13:28:18;;;;;;;43.67;17.77;;;;;;;;;;5110455;28;20031;-86
2022/03/06 13:30:44;;;;;;;54.47;25.50;;;;;;;;;;5112951;28;20087;-85
2022/03/06 13:33:09;;;;;;;48.15;20.55;;;;;;;;;;5114950;28;20432;-84
2022/03/06 13:35:35;;;;;;;46.92;20.58;;;;;;;;;;5113767;28;20032;-84
2022/03/06 13:38:03;;;;;;;43.92;18.52;;;;;;;;;;5115005;28;20342;-83
2022/03/06 13:40:30;;;;;;;42.83;17.08;;;;;;;;;;5124807;28;20034;-83
2022/03/06 13:42:55;;;;;;;39.70;15.95;;;;;;;;;;5100158;28;20082;-84
2022/03/06 13:45:22;;;;;;;46.78;22.35;;;;;;;;;;5114763;28;20027;-83
2022/03/06 13:47:49;;;;;;;65.72;28.33;;;;;;;;;;5096643;28;20088;-83
2022/03/06 13:50:39;;;;;;;45.75;20.10;;;;;;;;;;5115124;28;20114;-84
2022/03/06 13:53:06;;;;;;;37.47;17.15;;;;;;;;;;5113882;28;20433;-84
2022/03/06 13:55:32;;;;;;;54.15;23.17;;;;;;;;;;5114578;28;20118;-82
2022/03/06 13:58:08;;;;;;;50.50;21.55;;;;;;;;;;5113388;28;20058;-83
2022/03/06 14:00:43;;;;;;;49.83;21.73;;;;;;;;;;5114702;28;20030;-83
2022/03/06 14:03:10;;;;;;;39.20;18.25;;;;;;;;;;5129693;28;20038;-85
2022/03/06 14:05:42;;;;;;;57.67;25.77;;;;;;;;;;5114017;28;20104;-84
2022/03/06 14:08:14;;;;;;;46.40;19.65;;;;;;;;;;5113475;28;20030;-83
2022/03/06 14:10:43;;;;;;;53.42;23.80;;;;;;;;;;5120134;28;20036;-82
2022/03/06 14:13:26;;;;;;;51.97;22.23;;;;;;;;;;5096312;28;20063;-84
2022/03/06 14:15:53;;;;;;;45.60;19.77;;;;;;;;;;5113266;28;20028;-82
2022/03/06 14:18:47;;;;;;;55.38;24.10;;;;;;;;;;5113332;28;20417;-85
2022/03/06 14:21:22;;;;;;;59.97;26.42;;;;;;;;;;5113470;28;20068;-87